Time;durP1;ratioP1;P1;durP2;ratioP2;P2;SDS_P1;SDS_P2;PMS_P1;PMS_P2;Temp;Humidity;BMP_temperature;BMP_pressure;BME280_temperature;BME280_humidity;BME280_pressure;Samples;Min_cycle;Max_cycle;Signal;HPM_P1;HPM_P2
2023/04/23 00:02:11;;;;;;;15.97;14.37;;;;;;;;;;5070187;28;20160;-57
2023/04/23 00:04:38;;;;;;;17.23;15.50;;;;;;;;;;5068208;28;20207;-57
2023/04/23 00:07:05;;;;;;;17.77;15.80;;;;;;;;;;5069874;28;20184;-56
2023/04/23 00:09:32;;;;;;;18.67;16.77;;;;;;;;;;5069741;28;20156;-56
2023/04/23 00:11:59;;;;;;;17.17;15.37;;;;;;;;;;5069871;28;20197;-56
2023/04/23 00:14:26;;;;;;;18.03;16.13;;;;;;;;;;5069602;28;20192;-56
2023/04/23 00:16:53;;;;;;;18.83;16.83;;;;;;;;;;5070036;28;20175;-56
2023/04/23 00:19:19;;;;;;;17.40;15.60;;;;;;;;;;5050284;28;20165;-57
2023/04/23 00:21:46;;;;;;;18.33;16.23;;;;;;;;;;5070013;28;20742;-56
2023/04/23 00:24:12;;;;;;;18.53;16.17;;;;;;;;;;5068673;28;20228;-56
2023/04/23 00:26:39;;;;;;;17.23;15.30;;;;;;;;;;5069830;28;20599;-56
2023/04/23 00:29:06;;;;;;;20.03;16.50;;;;;;;;;;5068923;28;20179;-56
2023/04/23 00:31:32;;;;;;;17.87;15.93;;;;;;;;;;5070025;28;20179;-57
2023/04/23 00:33:58;;;;;;;19.13;17.10;;;;;;;;;;5067599;28;20185;-56
2023/04/23 00:36:25;;;;;;;18.17;15.47;;;;;;;;;;5069812;28;20162;-56
2023/04/23 00:38:51;;;;;;;19.47;16.33;;;;;;;;;;5069150;28;20184;-56
2023/04/23 00:41:18;;;;;;;16.63;14.23;;;;;;;;;;5069816;28;20514;-56
2023/04/23 00:43:44;;;;;;;19.13;16.27;;;;;;;;;;5069444;28;20525;-55
2023/04/23 00:46:11;;;;;;;16.47;14.47;;;;;;;;;;5069992;28;20291;-56
2023/04/23 00:48:37;;;;;;;17.73;15.60;;;;;;;;;;5071765;28;20169;-56
2023/04/23 00:51:04;;;;;;;19.43;15.20;;;;;;;;;;5073274;28;20256;-56
2023/04/23 00:53:31;;;;;;;20.53;15.67;;;;;;;;;;5072692;28;20189;-56
2023/04/23 00:55:57;;;;;;;16.13;14.27;;;;;;;;;;5073205;28;20202;-57
2023/04/23 00:58:24;;;;;;;16.60;14.87;;;;;;;;;;5073076;28;20184;-54
2023/04/23 01:00:51;;;;;;;16.73;14.93;;;;;;;;;;5055365;28;20165;-55
2023/04/23 01:03:20;;;;;;;17.17;15.33;;;;;;;;;;5071248;28;20642;-55
2023/04/23 01:05:48;;;;;;;16.83;13.07;;;;;;;;;;5053748;28;20211;-55
2023/04/23 01:08:15;;;;;;;17.70;14.60;;;;;;;;;;5052501;28;20721;-55
2023/04/23 01:10:42;;;;;;;15.37;13.70;;;;;;;;;;5053232;28;20173;-55
2023/04/23 01:13:09;;;;;;;17.33;13.97;;;;;;;;;;5052404;28;20196;-54
2023/04/23 01:15:35;;;;;;;17.73;14.53;;;;;;;;;;5071853;28;20241;-55
2023/04/23 01:18:03;;;;;;;15.97;13.67;;;;;;;;;;5071279;28;20172;-56
2023/04/23 01:20:31;;;;;;;14.77;12.73;;;;;;;;;;5072319;28;20170;-55
2023/04/23 01:22:57;;;;;;;14.87;13.40;;;;;;;;;;5072270;28;20294;-55
2023/04/23 01:25:23;;;;;;;14.10;12.60;;;;;;;;;;5072758;28;20556;-55
2023/04/23 01:27:50;;;;;;;15.50;13.13;;;;;;;;;;5072214;28;20195;-55
2023/04/23 01:30:16;;;;;;;15.53;14.03;;;;;;;;;;5072717;28;20316;-54
2023/04/23 01:32:42;;;;;;;13.73;12.33;;;;;;;;;;5072535;28;20196;-55
2023/04/23 01:35:09;;;;;;;14.23;12.73;;;;;;;;;;5071319;28;20238;-56
2023/04/23 01:37:36;;;;;;;14.33;12.77;;;;;;;;;;5072698;28;20252;-55
2023/04/23 01:40:03;;;;;;;13.60;12.20;;;;;;;;;;5072190;28;20179;-55
2023/04/23 01:42:29;;;;;;;12.33;11.03;;;;;;;;;;5054409;28;20201;-55
2023/04/23 01:44:56;;;;;;;13.87;11.97;;;;;;;;;;5071638;28;20447;-55
2023/04/23 01:47:22;;;;;;;13.23;11.83;;;;;;;;;;5072368;28;20752;-55
2023/04/23 01:49:48;;;;;;;13.90;12.33;;;;;;;;;;5070467;28;20205;-56
2023/04/23 01:52:15;;;;;;;12.70;11.40;;;;;;;;;;5072170;28;20185;-56
2023/04/23 01:54:41;;;;;;;14.80;11.87;;;;;;;;;;5072039;28;20201;-55
2023/04/23 01:57:07;;;;;;;14.73;12.23;;;;;;;;;;5071731;28;20169;-55
2023/04/23 01:59:34;;;;;;;12.17;10.90;;;;;;;;;;5071981;28;20251;-54
2023/04/23 02:02:00;;;;;;;12.80;11.50;;;;;;;;;;5071894;28;20161;-55
2023/04/23 02:04:26;;;;;;;14.40;11.87;;;;;;;;;;5070122;28;20725;-56
2023/04/23 02:06:53;;;;;;;13.93;11.53;;;;;;;;;;5072274;28;20204;-55
2023/04/23 02:09:20;;;;;;;12.87;11.53;;;;;;;;;;5071744;28;20230;-55
2023/04/23 02:11:46;;;;;;;12.50;11.20;;;;;;;;;;5072266;28;20200;-55
2023/04/23 02:14:12;;;;;;;12.67;11.40;;;;;;;;;;5071434;28;20255;-56
2023/04/23 02:16:39;;;;;;;11.37;10.27;;;;;;;;;;5071489;28;20255;-55
2023/04/23 02:19:05;;;;;;;12.47;11.23;;;;;;;;;;5070246;28;20153;-55
2023/04/23 02:21:32;;;;;;;13.37;11.37;;;;;;;;;;5071927;28;20211;-55
2023/04/23 02:23:58;;;;;;;12.20;10.67;;;;;;;;;;5071352;28;20267;-55
2023/04/23 02:26:24;;;;;;;12.63;10.50;;;;;;;;;;5071423;28;20594;-55
2023/04/23 02:28:51;;;;;;;12.63;10.83;;;;;;;;;;5071680;28;20169;-55
2023/04/23 02:31:19;;;;;;;11.97;10.03;;;;;;;;;;5071904;28;20306;-55
2023/04/23 02:33:45;;;;;;;10.77;9.60;;;;;;;;;;5070204;28;20180;-54
2023/04/23 02:36:12;;;;;;;14.07;11.57;;;;;;;;;;5072068;28;20747;-55
2023/04/23 02:38:43;;;;;;;12.10;10.87;;;;;;;;;;5071469;28;20164;-55
2023/04/23 02:41:10;;;;;;;12.27;11.07;;;;;;;;;;5071742;28;20244;-55
2023/04/23 02:43:36;;;;;;;12.30;10.90;;;;;;;;;;5070995;28;20172;-54
2023/04/23 02:46:08;;;;;;;10.40;9.30;;;;;;;;;;5071216;28;20591;-53
2023/04/23 02:48:39;;;;;;;12.20;10.90;;;;;;;;;;5070247;28;20173;-54
2023/04/23 02:51:06;;;;;;;11.80;10.70;;;;;;;;;;5071045;28;20597;-54
2023/04/23 02:53:32;;;;;;;12.17;10.97;;;;;;;;;;5071143;28;20157;-52
2023/04/23 02:55:58;;;;;;;12.17;10.63;;;;;;;;;;5070559;28;20203;-52
2023/04/23 02:58:25;;;;;;;12.27;10.97;;;;;;;;;;5071139;28;20161;-53
2023/04/23 03:00:51;;;;;;;12.33;10.83;;;;;;;;;;5071193;28;20183;-53
2023/04/23 03:03:18;;;;;;;12.73;11.43;;;;;;;;;;5069729;28;20529;-53
2023/04/23 03:05:44;;;;;;;12.43;10.93;;;;;;;;;;5070758;28;20177;-53
2023/04/23 03:08:10;;;;;;;12.70;11.30;;;;;;;;;;5070402;28;20179;-53
2023/04/23 03:10:36;;;;;;;12.90;11.67;;;;;;;;;;5070528;28;20211;-53
2023/04/23 03:13:02;;;;;;;11.70;10.60;;;;;;;;;;5070448;28;20270;-54
2023/04/23 03:15:29;;;;;;;14.40;10.90;;;;;;;;;;5070927;28;20204;-54
2023/04/23 03:17:55;;;;;;;13.07;11.63;;;;;;;;;;5069609;28;20170;-54
2023/04/23 03:20:21;;;;;;;12.83;11.13;;;;;;;;;;5070681;28;20267;-53
2023/04/23 03:22:47;;;;;;;13.17;11.83;;;;;;;;;;5070486;28;20248;-54
2023/04/23 03:25:14;;;;;;;13.47;11.47;;;;;;;;;;5070287;28;20612;-54
2023/04/23 03:27:41;;;;;;;12.00;10.37;;;;;;;;;;5070673;28;20231;-53
2023/04/23 03:30:08;;;;;;;12.97;10.70;;;;;;;;;;5070806;28;20175;-54
2023/04/23 03:32:36;;;;;;;12.80;11.47;;;;;;;;;;5070784;28;20511;-54
2023/04/23 03:35:02;;;;;;;12.17;11.00;;;;;;;;;;5068725;28;20200;-55
2023/04/23 03:37:28;;;;;;;13.47;12.07;;;;;;;;;;5070377;28;20166;-54
2023/04/23 03:39:54;;;;;;;13.10;11.90;;;;;;;;;;5070049;28;20165;-53
2023/04/23 03:42:20;;;;;;;14.33;12.30;;;;;;;;;;5069266;28;20179;-54
2023/04/23 03:44:47;;;;;;;12.73;11.40;;;;;;;;;;5050595;28;20628;-54
2023/04/23 03:47:13;;;;;;;12.77;11.47;;;;;;;;;;5070247;28;20189;-54
2023/04/23 03:49:39;;;;;;;12.00;10.83;;;;;;;;;;5068637;28;20174;-54
2023/04/23 03:52:06;;;;;;;12.47;11.27;;;;;;;;;;5069866;28;20687;-54
2023/04/23 03:54:32;;;;;;;13.93;12.43;;;;;;;;;;5069838;28;20214;-54
2023/04/23 03:56:58;;;;;;;13.90;11.43;;;;;;;;;;5069870;28;20171;-53
2023/04/23 03:59:24;;;;;;;14.65;13.27;;;;;;;;;;5069849;28;20718;-54
2023/04/23 04:01:50;;;;;;;12.93;11.67;;;;;;;;;;5070073;28;20168;-54
2023/04/23 04:04:17;;;;;;;14.17;12.80;;;;;;;;;;5050685;28;20176;-54
2023/04/23 04:06:43;;;;;;;12.80;11.50;;;;;;;;;;5069949;28;20249;-54
2023/04/23 04:09:09;;;;;;;12.07;10.90;;;;;;;;;;5069272;28;20269;-53
2023/04/23 04:11:35;;;;;;;13.40;12.10;;;;;;;;;;5069872;28;20188;-54
2023/04/23 04:14:02;;;;;;;13.97;11.60;;;;;;;;;;5069590;28;20676;-53
2023/04/23 04:16:28;;;;;;;12.20;10.90;;;;;;;;;;5069724;28;20316;-53
2023/04/23 04:18:54;;;;;;;13.23;11.83;;;;;;;;;;5068487;28;20170;-53
2023/04/23 04:21:21;;;;;;;13.80;12.40;;;;;;;;;;5068830;28;20177;-54
2023/04/23 04:23:47;;;;;;;13.43;12.03;;;;;;;;;;5068069;28;20225;-53
2023/04/23 04:26:14;;;;;;;12.17;10.90;;;;;;;;;;5068556;28;20188;-54
2023/04/23 04:28:40;;;;;;;12.80;11.33;;;;;;;;;;5069403;28;20161;-53
2023/04/23 04:31:07;;;;;;;12.37;11.03;;;;;;;;;;5069912;28;20176;-53
2023/04/23 04:33:34;;;;;;;12.53;11.13;;;;;;;;;;5068498;28;20164;-52
2023/04/23 04:36:01;;;;;;;13.00;11.60;;;;;;;;;;5069483;28;20196;-52
2023/04/23 04:38:28;;;;;;;12.53;11.23;;;;;;;;;;5069229;28;20161;-52
2023/04/23 04:40:58;;;;;;;12.30;11.10;;;;;;;;;;5069729;28;20582;-52
2023/04/23 04:43:25;;;;;;;12.37;11.10;;;;;;;;;;5059268;28;20675;-52
2023/04/23 04:45:52;;;;;;;11.83;10.63;;;;;;;;;;5058662;28;20191;-52
2023/04/23 04:48:19;;;;;;;12.33;10.60;;;;;;;;;;5068256;28;20443;-53
2023/04/23 04:50:45;;;;;;;12.80;11.00;;;;;;;;;;5069230;28;20664;-52
2023/04/23 04:53:12;;;;;;;13.90;12.17;;;;;;;;;;5069359;28;20540;-52
2023/04/23 04:55:39;;;;;;;12.60;11.30;;;;;;;;;;5069009;28;20216;-52
2023/04/23 04:58:05;;;;;;;13.37;11.40;;;;;;;;;;5069259;28;20681;-52
2023/04/23 05:00:32;;;;;;;12.87;11.60;;;;;;;;;;5069232;28;20164;-52
2023/04/23 05:02:58;;;;;;;12.50;10.90;;;;;;;;;;5067690;28;20169;-52
2023/04/23 05:05:25;;;;;;;11.63;10.43;;;;;;;;;;5069016;28;20165;-53
2023/04/23 05:07:53;;;;;;;12.47;11.27;;;;;;;;;;5069365;28;20156;-54
2023/04/23 05:10:19;;;;;;;11.60;10.40;;;;;;;;;;5068606;28;20216;-52
2023/04/23 05:12:46;;;;;;;11.30;10.10;;;;;;;;;;5051298;28;20754;-53
2023/04/23 05:15:13;;;;;;;12.50;10.50;;;;;;;;;;5069614;28;20188;-52
2023/04/23 05:17:40;;;;;;;11.60;10.23;;;;;;;;;;5069613;28;20164;-52
2023/04/23 05:20:09;;;;;;;12.63;11.37;;;;;;;;;;5067482;28;20164;-52
2023/04/23 05:22:40;;;;;;;13.47;11.13;;;;;;;;;;5068757;28;20208;-53
2023/04/23 05:25:06;;;;;;;12.23;11.03;;;;;;;;;;5068660;28;20184;-52
2023/04/23 05:27:33;;;;;;;13.30;11.40;;;;;;;;;;5069338;28;20257;-52
2023/04/23 05:30:00;;;;;;;12.03;10.70;;;;;;;;;;5050322;28;20172;-53
2023/04/23 05:32:26;;;;;;;11.53;10.17;;;;;;;;;;5070369;28;20165;-54
2023/04/23 05:34:54;;;;;;;12.50;10.47;;;;;;;;;;5053358;28;20196;-52
2023/04/23 05:37:21;;;;;;;12.50;11.30;;;;;;;;;;5072521;28;20673;-54
2023/04/23 05:39:47;;;;;;;11.63;10.43;;;;;;;;;;5071917;28;20657;-53
2023/04/23 05:42:13;;;;;;;12.00;10.80;;;;;;;;;;5073089;28;20561;-52
2023/04/23 05:44:40;;;;;;;11.87;10.67;;;;;;;;;;5053978;28;20180;-52
2023/04/23 05:47:07;;;;;;;12.97;10.43;;;;;;;;;;5072003;28;20169;-52
2023/04/23 05:49:34;;;;;;;13.33;11.93;;;;;;;;;;5070932;28;20157;-52
2023/04/23 05:52:01;;;;;;;12.67;11.33;;;;;;;;;;5071749;28;20188;-52
2023/04/23 05:54:28;;;;;;;12.13;10.53;;;;;;;;;;5071825;28;20211;-53
2023/04/23 05:56:54;;;;;;;12.10;10.90;;;;;;;;;;5072502;28;20161;-52
2023/04/23 05:59:20;;;;;;;11.73;10.53;;;;;;;;;;5072180;28;20573;-52
2023/04/23 06:01:47;;;;;;;11.57;10.37;;;;;;;;;;5072555;28;20620;-52
2023/04/23 06:04:14;;;;;;;11.67;10.57;;;;;;;;;;5070824;28;20168;-53
2023/04/23 06:06:40;;;;;;;11.87;10.63;;;;;;;;;;5071536;28;20169;-53
2023/04/23 06:09:07;;;;;;;12.37;10.93;;;;;;;;;;5071729;28;20207;-54
2023/04/23 06:11:34;;;;;;;11.43;10.17;;;;;;;;;;5071893;28;20691;-53
2023/04/23 06:14:01;;;;;;;10.70;9.57;;;;;;;;;;5071868;28;20542;-53
2023/04/23 06:16:27;;;;;;;10.83;9.83;;;;;;;;;;5071750;28;20205;-53
2023/04/23 06:18:55;;;;;;;10.97;9.80;;;;;;;;;;5070547;28;20699;-53
2023/04/23 06:21:21;;;;;;;15.13;10.07;;;;;;;;;;5071827;28;20282;-53
2023/04/23 06:23:47;;;;;;;11.07;9.97;;;;;;;;;;5071273;28;20213;-53
2023/04/23 06:26:15;;;;;;;11.57;9.37;;;;;;;;;;5071992;28;20640;-53
2023/04/23 06:28:45;;;;;;;10.77;9.67;;;;;;;;;;5071623;28;20185;-53
2023/04/23 06:31:12;;;;;;;10.63;8.80;;;;;;;;;;5071331;28;20557;-54
2023/04/23 06:33:38;;;;;;;10.13;8.50;;;;;;;;;;5070511;28;20276;-54
2023/04/23 06:36:05;;;;;;;11.03;9.47;;;;;;;;;;5071038;28;20575;-53
2023/04/23 06:38:31;;;;;;;10.90;9.53;;;;;;;;;;5071505;28;20169;-53
2023/04/23 06:40:57;;;;;;;10.40;9.23;;;;;;;;;;5071609;28;20160;-53
2023/04/23 06:43:24;;;;;;;10.73;9.63;;;;;;;;;;5070186;28;20184;-52
2023/04/23 06:45:50;;;;;;;9.93;8.70;;;;;;;;;;5071575;28;20161;-53
2023/04/23 06:48:17;;;;;;;10.67;9.57;;;;;;;;;;5070261;28;20708;-53
2023/04/23 06:50:44;;;;;;;10.23;9.23;;;;;;;;;;5071074;28;20180;-54
2023/04/23 06:53:10;;;;;;;9.77;8.70;;;;;;;;;;5070781;28;20231;-52
2023/04/23 06:55:36;;;;;;;8.40;7.57;;;;;;;;;;5071569;28;20691;-52
2023/04/23 06:58:02;;;;;;;10.20;9.17;;;;;;;;;;5070792;28;20169;-52
2023/04/23 07:00:28;;;;;;;10.17;9.07;;;;;;;;;;5053052;28;20168;-52
2023/04/23 07:02:55;;;;;;;9.43;8.53;;;;;;;;;;5069944;28;20180;-52
2023/04/23 07:05:21;;;;;;;10.10;9.10;;;;;;;;;;5070718;28;20160;-52
2023/04/23 07:07:47;;;;;;;10.13;9.13;;;;;;;;;;5070793;28;20172;-52
2023/04/23 07:10:14;;;;;;;10.60;9.47;;;;;;;;;;5070482;28;20574;-52
2023/04/23 07:12:40;;;;;;;9.80;8.50;;;;;;;;;;5071267;28;20619;-56
2023/04/23 07:15:07;;;;;;;9.47;8.47;;;;;;;;;;5070447;28;20200;-58
2023/04/23 07:17:33;;;;;;;9.83;8.80;;;;;;;;;;5071077;28;20160;-55
2023/04/23 07:20:04;;;;;;;9.60;8.57;;;;;;;;;;5069198;28;20153;-57
2023/04/23 07:22:30;;;;;;;10.33;9.07;;;;;;;;;;5069884;28;20216;-56
2023/04/23 07:24:57;;;;;;;10.90;9.73;;;;;;;;;;5070376;28;20180;-56
2023/04/23 07:27:23;;;;;;;9.43;8.53;;;;;;;;;;5070580;28;20636;-56
2023/04/23 07:29:50;;;;;;;9.83;8.83;;;;;;;;;;5052173;28;20618;-56
2023/04/23 07:32:17;;;;;;;8.67;7.87;;;;;;;;;;5070311;28;20539;-57
2023/04/23 07:34:45;;;;;;;11.10;8.40;;;;;;;;;;5069148;28;20279;-56
2023/04/23 07:37:11;;;;;;;11.67;9.07;;;;;;;;;;5051872;28;20177;-56
2023/04/23 07:39:38;;;;;;;9.33;8.40;;;;;;;;;;5051974;28;20215;-57
2023/04/23 07:42:04;;;;;;;10.63;8.40;;;;;;;;;;5070191;28;20152;-56
2023/04/23 07:44:30;;;;;;;8.60;7.80;;;;;;;;;;5051961;28;20263;-56
2023/04/23 07:46:57;;;;;;;7.73;6.93;;;;;;;;;;5069763;28;20613;-56
2023/04/23 07:49:24;;;;;;;8.47;7.67;;;;;;;;;;5068582;28;20177;-56
2023/04/23 07:51:50;;;;;;;7.80;6.90;;;;;;;;;;5069872;28;20172;-56
2023/04/23 07:54:16;;;;;;;7.60;6.90;;;;;;;;;;5069927;28;20168;-56
2023/04/23 07:56:42;;;;;;;7.97;7.17;;;;;;;;;;5069779;28;20594;-56
2023/04/23 07:59:09;;;;;;;7.47;6.30;;;;;;;;;;5070160;28;20277;-56
2023/04/23 08:01:36;;;;;;;6.53;5.93;;;;;;;;;;5052341;28;20199;-56
2023/04/23 08:04:02;;;;;;;7.90;6.73;;;;;;;;;;5068844;28;21062;-57
2023/04/23 08:06:33;;;;;;;9.07;6.20;;;;;;;;;;5069877;28;20181;-57
2023/04/23 08:09:05;;;;;;;8.10;6.13;;;;;;;;;;5070009;28;20169;-57
2023/04/23 08:11:31;;;;;;;7.47;5.83;;;;;;;;;;5069802;28;20202;-57
2023/04/23 08:13:58;;;;;;;7.77;5.83;;;;;;;;;;5051520;28;20178;-57
2023/04/23 08:16:25;;;;;;;6.50;5.90;;;;;;;;;;5069491;28;20284;-56
2023/04/23 08:18:51;;;;;;;7.30;5.93;;;;;;;;;;5068528;28;20184;-57
2023/04/23 08:21:18;;;;;;;6.97;5.93;;;;;;;;;;5051738;28;20183;-57
2023/04/23 08:23:44;;;;;;;6.57;5.83;;;;;;;;;;5069204;28;20249;-57
2023/04/23 08:26:11;;;;;;;6.37;5.80;;;;;;;;;;5069672;28;20218;-57
2023/04/23 08:28:38;;;;;;;5.50;5.00;;;;;;;;;;5069035;28;20190;-57
2023/04/23 08:31:04;;;;;;;5.10;4.70;;;;;;;;;;5069640;28;20171;-57
2023/04/23 08:33:30;;;;;;;5.83;4.53;;;;;;;;;;5067938;28;20182;-56
2023/04/23 08:35:57;;;;;;;5.33;4.67;;;;;;;;;;5069071;28;20191;-57
2023/04/23 08:38:23;;;;;;;5.83;5.33;;;;;;;;;;5067962;28;20599;-59
2023/04/23 08:40:50;;;;;;;5.03;4.63;;;;;;;;;;5069629;28;20167;-57
2023/04/23 08:43:19;;;;;;;5.83;4.80;;;;;;;;;;5068535;28;20212;-56
2023/04/23 08:45:46;;;;;;;5.43;4.93;;;;;;;;;;5069289;28;20646;-56
2023/04/23 08:48:13;;;;;;;5.60;4.87;;;;;;;;;;5067422;28;20709;-57
2023/04/23 08:50:42;;;;;;;5.33;4.83;;;;;;;;;;5069534;28;20168;-56
2023/04/23 08:53:09;;;;;;;6.90;4.47;;;;;;;;;;5069038;28;20190;-56
2023/04/23 08:55:36;;;;;;;4.40;4.00;;;;;;;;;;5069545;28;20272;-56
2023/04/23 08:58:05;;;;;;;5.20;4.10;;;;;;;;;;5068683;28;20184;-56
2023/04/23 09:00:32;;;;;;;4.83;4.43;;;;;;;;;;5069725;28;20555;-56
2023/04/23 09:02:59;;;;;;;5.83;5.00;;;;;;;;;;5067837;28;20163;-57
2023/04/23 09:05:27;;;;;;;6.20;4.50;;;;;;;;;;5069516;28;20172;-57
2023/04/23 09:07:54;;;;;;;7.40;4.83;;;;;;;;;;5070304;28;20196;-55
2023/04/23 09:10:20;;;;;;;6.20;4.80;;;;;;;;;;5072920;28;20181;-55
2023/04/23 09:12:47;;;;;;;6.97;4.57;;;;;;;;;;5072938;28;20699;-56
2023/04/23 09:15:13;;;;;;;4.53;4.13;;;;;;;;;;5072793;28;20280;-56
2023/04/23 09:17:40;;;;;;;4.53;4.07;;;;;;;;;;5072913;28;20531;-57
2023/04/23 09:20:11;;;;;;;4.27;3.43;;;;;;;;;;5071060;28;20197;-57
2023/04/23 09:22:45;;;;;;;5.87;3.73;;;;;;;;;;5072254;28;20271;-57
2023/04/23 09:25:12;;;;;;;4.10;3.80;;;;;;;;;;5072683;28;20176;-56
2023/04/23 09:27:39;;;;;;;5.47;3.63;;;;;;;;;;5072867;28;20153;-56
2023/04/23 09:30:06;;;;;;;4.97;4.13;;;;;;;;;;5072137;28;20161;-58
2023/04/23 09:32:37;;;;;;;3.67;3.23;;;;;;;;;;5072445;28;20180;-58
2023/04/23 09:35:07;;;;;;;3.67;3.37;;;;;;;;;;5071642;28;20204;-66
2023/04/23 09:37:33;;;;;;;5.87;3.27;;;;;;;;;;5072414;28;20633;-57
2023/04/23 09:40:05;;;;;;;6.67;3.43;;;;;;;;;;5072271;28;20172;-57
2023/04/23 09:42:32;;;;;;;4.47;3.73;;;;;;;;;;5070173;28;20202;-56
2023/04/23 09:45:01;;;;;;;3.73;3.33;;;;;;;;;;5052309;28;20504;-57
2023/04/23 09:47:31;;;;;;;3.87;3.53;;;;;;;;;;5034622;28;20168;-57
2023/04/23 09:49:58;;;;;;;3.60;3.30;;;;;;;;;;5051129;28;20159;-58
2023/04/23 09:52:25;;;;;;;5.23;3.30;;;;;;;;;;5067574;28;20184;-59
2023/04/23 09:54:51;;;;;;;4.43;3.30;;;;;;;;;;5052564;28;20678;-57
2023/04/23 09:57:17;;;;;;;5.17;2.93;;;;;;;;;;5071984;28;20259;-57
2023/04/23 09:59:44;;;;;;;5.33;3.20;;;;;;;;;;5071615;28;20163;-56
2023/04/23 10:02:10;;;;;;;2.83;2.60;;;;;;;;;;5071923;28;20173;-57
2023/04/23 10:04:38;;;;;;;4.10;3.10;;;;;;;;;;5070679;28;20183;-57
2023/04/23 10:07:07;;;;;;;4.33;3.93;;;;;;;;;;5072048;28;20637;-57
2023/04/23 10:09:33;;;;;;;3.70;3.30;;;;;;;;;;5071054;28;20181;-57
2023/04/23 10:12:03;;;;;;;3.80;3.33;;;;;;;;;;5053553;28;20688;-57
2023/04/23 10:14:30;;;;;;;3.83;3.37;;;;;;;;;;5069152;28;20245;-56
2023/04/23 10:17:00;;;;;;;3.53;3.23;;;;;;;;;;5070818;28;20645;-57
2023/04/23 10:19:28;;;;;;;3.67;3.27;;;;;;;;;;5068646;28;20181;-58
2023/04/23 10:21:56;;;;;;;4.07;2.87;;;;;;;;;;5070339;28;20174;-58
2023/04/23 10:24:28;;;;;;;5.67;3.10;;;;;;;;;;5069762;28;20223;-58
2023/04/23 10:26:56;;;;;;;3.40;2.90;;;;;;;;;;5071633;28;20654;-58
2023/04/23 10:29:26;;;;;;;2.97;2.67;;;;;;;;;;5071591;28;20522;-58
2023/04/23 10:31:53;;;;;;;3.20;2.90;;;;;;;;;;5071156;28;20178;-59
2023/04/23 10:34:20;;;;;;;2.90;2.70;;;;;;;;;;5069779;28;20528;-58
2023/04/23 10:36:46;;;;;;;7.17;3.57;;;;;;;;;;5071658;28;20673;-57
2023/04/23 10:39:13;;;;;;;3.40;3.10;;;;;;;;;;5070636;28;20338;-56
2023/04/23 10:41:41;;;;;;;5.50;3.27;;;;;;;;;;5053645;28;20224;-56
2023/04/23 10:44:11;;;;;;;4.17;3.30;;;;;;;;;;5070776;28;20418;-55
2023/04/23 10:46:38;;;;;;;4.13;3.10;;;;;;;;;;5053102;28;20199;-57
2023/04/23 10:49:07;;;;;;;3.20;2.90;;;;;;;;;;5058760;28;20178;-55
2023/04/23 10:51:37;;;;;;;3.43;2.80;;;;;;;;;;5057353;28;20562;-55
2023/04/23 10:54:04;;;;;;;3.93;3.20;;;;;;;;;;5070751;28;20184;-55
2023/04/23 10:56:30;;;;;;;3.07;2.77;;;;;;;;;;5071143;28;20250;-55
2023/04/23 10:58:57;;;;;;;3.33;2.60;;;;;;;;;;5070795;28;20164;-56
2023/04/23 11:01:25;;;;;;;4.00;2.47;;;;;;;;;;5070922;28;20175;-57
2023/04/23 11:03:52;;;;;;;2.90;2.60;;;;;;;;;;5069607;28;20247;-60
2023/04/23 11:06:44;;;;;;;2.63;2.43;;;;;;;;;;5070699;28;20176;-56
2023/04/23 11:09:30;;;;;;;3.13;2.70;;;;;;;;;;5066699;28;20196;-57
2023/04/23 11:11:57;;;;;;;3.33;3.00;;;;;;;;;;5070991;28;20219;-56
2023/04/23 11:14:36;;;;;;;3.63;2.63;;;;;;;;;;5070592;28;20237;-57
2023/04/23 11:17:04;;;;;;;6.60;2.70;;;;;;;;;;5070847;28;20152;-57
2023/04/23 11:19:30;;;;;;;2.97;2.77;;;;;;;;;;5068742;28;20220;-56
2023/04/23 11:22:23;;;;;;;3.00;2.70;;;;;;;;;;5070544;28;20169;-57
2023/04/23 11:24:49;;;;;;;3.73;2.53;;;;;;;;;;5066689;28;20224;-57
2023/04/23 11:27:16;;;;;;;2.77;2.53;;;;;;;;;;5070744;28;20587;-56
2023/04/23 11:29:44;;;;;;;4.10;2.70;;;;;;;;;;5069501;28;20164;-56
2023/04/23 11:32:12;;;;;;;4.13;2.60;;;;;;;;;;5070720;28;20199;-57
2023/04/23 11:34:42;;;;;;;3.20;2.23;;;;;;;;;;5069214;28;20650;-57
2023/04/23 11:37:12;;;;;;;4.73;2.23;;;;;;;;;;5070169;28;20534;-58
2023/04/23 11:39:39;;;;;;;4.07;2.10;;;;;;;;;;5070007;28;20175;-57
2023/04/23 11:42:16;;;;;;;3.27;2.20;;;;;;;;;;5070565;28;20157;-57
2023/04/23 11:44:43;;;;;;;3.07;2.03;;;;;;;;;;5065311;28;20164;-57
2023/04/23 11:47:10;;;;;;;4.53;2.03;;;;;;;;;;5070539;28;20175;-57
2023/04/23 11:49:37;;;;;;;2.47;2.27;;;;;;;;;;5068897;28;20197;-57
2023/04/23 11:52:04;;;;;;;3.70;2.30;;;;;;;;;;5069858;28;20909;-57
2023/04/23 11:54:30;;;;;;;4.87;2.40;;;;;;;;;;5069754;28;20533;-60
2023/04/23 11:57:00;;;;;;;4.27;2.30;;;;;;;;;;5052257;28;20176;-57
2023/04/23 11:59:27;;;;;;;5.17;2.73;;;;;;;;;;5069599;28;20160;-56
2023/04/23 12:01:55;;;;;;;4.27;2.50;;;;;;;;;;5069734;28;20165;-57
2023/04/23 12:04:23;;;;;;;5.23;3.10;;;;;;;;;;5068426;28;20172;-56
2023/04/23 12:06:50;;;;;;;4.33;2.50;;;;;;;;;;5070140;28;20192;-56
2023/04/23 12:09:17;;;;;;;2.40;2.20;;;;;;;;;;5069634;28;20204;-56
2023/04/23 12:11:44;;;;;;;4.60;2.27;;;;;;;;;;5069939;28;20204;-56
2023/04/23 12:14:11;;;;;;;3.17;2.53;;;;;;;;;;5069068;28;20740;-56
2023/04/23 12:16:44;;;;;;;3.77;2.00;;;;;;;;;;5069886;28;20246;-56
2023/04/23 12:19:15;;;;;;;2.43;2.23;;;;;;;;;;5068389;28;20179;-56
2023/04/23 12:22:07;;;;;;;1.80;1.70;;;;;;;;;;5069866;28;20188;-53
2023/04/23 12:24:53;;;;;;;2.60;2.40;;;;;;;;;;5045487;28;20596;-54
2023/04/23 12:27:25;;;;;;;2.83;1.90;;;;;;;;;;5050029;28;20169;-55
2023/04/23 12:30:00;;;;;;;1.97;1.77;;;;;;;;;;5049280;28;20183;-55
2023/04/23 12:32:26;;;;;;;2.97;2.07;;;;;;;;;;5053709;28;20617;-55
2023/04/23 12:34:56;;;;;;;2.30;1.90;;;;;;;;;;5068565;28;20204;-56
2023/04/23 12:37:29;;;;;;;2.47;1.90;;;;;;;;;;5051484;28;20226;-55
2023/04/23 12:39:58;;;;;;;3.20;1.97;;;;;;;;;;5069301;28;20291;-56
2023/04/23 12:42:25;;;;;;;2.63;2.10;;;;;;;;;;5070497;28;20187;-57
2023/04/23 12:44:54;;;;;;;1.70;1.60;;;;;;;;;;5050502;28;20271;-55
2023/04/23 12:47:20;;;;;;;3.00;1.90;;;;;;;;;;5073739;28;20188;-55
2023/04/23 12:49:51;;;;;;;2.20;2.00;;;;;;;;;;5072066;28;20513;-55
2023/04/23 12:52:18;;;;;;;2.20;1.63;;;;;;;;;;5073093;28;20188;-55
2023/04/23 12:54:44;;;;;;;2.10;1.67;;;;;;;;;;5072739;28;20264;-56
2023/04/23 12:57:13;;;;;;;1.80;1.70;;;;;;;;;;5073647;28;20192;-55
2023/04/23 12:59:39;;;;;;;1.97;1.70;;;;;;;;;;5073099;28;20164;-55
2023/04/23 13:02:06;;;;;;;2.67;1.70;;;;;;;;;;5073334;28;20172;-55
2023/04/23 13:04:32;;;;;;;2.60;1.90;;;;;;;;;;5053688;28;20606;-55
2023/04/23 13:06:59;;;;;;;2.70;1.90;;;;;;;;;;5073410;28;20176;-56
2023/04/23 13:09:26;;;;;;;2.30;1.73;;;;;;;;;;5071790;28;20168;-56
2023/04/23 13:11:53;;;;;;;2.40;1.80;;;;;;;;;;5073036;28;20204;-56
2023/04/23 13:14:20;;;;;;;2.67;2.00;;;;;;;;;;5073014;28;20536;-57
2023/04/23 13:16:46;;;;;;;4.90;1.83;;;;;;;;;;5072953;28;20184;-57
2023/04/23 13:19:13;;;;;;;2.70;1.90;;;;;;;;;;5071358;28;20668;-55
2023/04/23 13:21:39;;;;;;;3.17;1.70;;;;;;;;;;5072804;28;20211;-56
2023/04/23 13:24:06;;;;;;;4.33;2.13;;;;;;;;;;5071905;28;20695;-56
2023/04/23 13:26:34;;;;;;;1.87;1.60;;;;;;;;;;5072950;28;20204;-56
2023/04/23 13:29:00;;;;;;;1.97;1.80;;;;;;;;;;5072264;28;20180;-56
2023/04/23 13:31:27;;;;;;;1.80;1.70;;;;;;;;;;5072628;28;20647;-56
2023/04/23 13:33:53;;;;;;;3.50;1.80;;;;;;;;;;5071417;28;20211;-56
2023/04/23 13:36:19;;;;;;;2.03;1.70;;;;;;;;;;5072886;28;20204;-57
2023/04/23 13:38:47;;;;;;;1.70;1.60;;;;;;;;;;5071974;28;20179;-56
2023/04/23 13:41:13;;;;;;;1.77;1.67;;;;;;;;;;5072891;28;20171;-56
2023/04/23 13:43:39;;;;;;;2.37;1.50;;;;;;;;;;5072355;28;20535;-56
2023/04/23 13:46:06;;;;;;;1.77;1.67;;;;;;;;;;5072855;28;20184;-57
2023/04/23 13:48:32;;;;;;;5.73;1.70;;;;;;;;;;5070874;28;20184;-56
2023/04/23 13:50:59;;;;;;;3.10;1.90;;;;;;;;;;5072437;28;20632;-56
2023/04/23 13:53:26;;;;;;;1.43;1.33;;;;;;;;;;5071230;28;20586;-56
2023/04/23 13:55:53;;;;;;;4.17;1.90;;;;;;;;;;5072476;28;20553;-57
2023/04/23 13:58:19;;;;;;;1.77;1.53;;;;;;;;;;5071858;28;20168;-57
2023/04/23 14:06:53;;;;;;;3.00;1.90;;;;;;;;;;5071686;28;20191;-56
2023/04/23 14:09:21;;;;;;;1.90;1.67;;;;;;;;;;5071255;28;20184;-57
2023/04/23 14:11:47;;;;;;;2.10;1.70;;;;;;;;;;5072272;28;20601;-57
2023/04/23 14:14:14;;;;;;;2.13;1.93;;;;;;;;;;5071635;28;20169;-57
2023/04/23 14:16:40;;;;;;;1.97;1.87;;;;;;;;;;5072036;28;20247;-57
2023/04/23 14:19:06;;;;;;;1.93;1.67;;;;;;;;;;5052451;28;20169;-57
2023/04/23 14:21:34;;;;;;;2.33;1.50;;;;;;;;;;5072095;28;20644;-57
2023/04/23 14:24:02;;;;;;;2.10;1.80;;;;;;;;;;5071017;28;20224;-57
2023/04/23 14:26:33;;;;;;;1.83;1.63;;;;;;;;;;5071607;28;20169;-57
2023/04/23 14:29:08;;;;;;;3.63;2.23;;;;;;;;;;5071803;28;20503;-60
2023/04/23 14:31:36;;;;;;;3.67;1.90;;;;;;;;;;5071524;28;20173;-58
2023/04/23 14:34:05;;;;;;;4.97;2.03;;;;;;;;;;5070116;28;20204;-56
2023/04/23 14:36:31;;;;;;;2.50;1.70;;;;;;;;;;5071625;28;20712;-56
2023/04/23 14:39:03;;;;;;;2.63;1.80;;;;;;;;;;5071024;28;20200;-56